Impacts METAR Board
IDs:

KCLT - Charlotte/Douglas In, NC, US

Updated at: 1200 UTC 15 Dec 2018
Potential Impact None Slight Moderate High
Time 15/00Z 15/01Z 15/02Z 15/03Z 15/04Z 15/05Z 15/06Z 15/07Z 15/08Z 15/09Z 15/10Z 15/11Z 15/12Z
Temp43 42 42 42 42 43 42 42 42 43 44 44 45
Dewpt42 42 42 42 42 42 42 42 42 43 43 43 44
Altim30.05 30.06 30.04 30.02 30.04 30.03 30.00 29.98 29.97 29.98 29.97 29.93 29.92
VIS4 3 1.75 2 1.25 3 3 4 2 2 3 4 3
CIG4 2 2 2 3 4 4 3 2 2 3 8 4
CoverOVCOVCOVCOVCOVCOVCOVCOVCOVCOVCOVCOVCOVC
FltCatLIFRLIFRLIFRLIFRLIFRLIFRLIFRLIFRLIFRLIFRLIFRIFRLIFR
WXBRBR-RA BR-RA BRRA BR-RA BR-RA BRBRBRRA BR-RA BR-RA BR-RA BR
WDir103601010360360360103603403603090
WSpd9 8 7 5 7 6 5 6 5 6 5 10 7
WGst-- -- -- -- -- -- -- -- -- -- -- -- --
Raw hourly METARs
KCLT 142352Z 01009KT 4SM BR OVC004 06/06 A3005 RMK AO2 RAE19 SLP178 P0000 60010 T00610056 10067 20056 58013
KCLT 150052Z 36008KT 3SM BR OVC002 06/06 A3006 RMK AO2 SLP179 T00560056
KCLT 150152Z 01007KT 1 3/4SM -RA BR OVC002 06/06 A3004 RMK AO2 RAB25E37B50 SLP175 P0000 T00560056
KCLT 150259Z 01005KT 2SM -RA BR OVC002 06/06 A3002 RMK AO2 P0001 T00560056
KCLT 150352Z 36007KT 1 1/4SM RA BR OVC003 06/06 A3004 RMK AO2 SLP173 P0006 T00560056
KCLT 150452Z 36006KT 3SM -RA BR OVC004 06/06 A3003 RMK AO2 SLP169 P0006 T00610056 400780044
KCLT 150552Z 36005KT 3SM -RA BR OVC004 06/06 A3000 RMK AO2 SLP160 P0001 60015 T00560056 10061 20056 58004
KCLT 150652Z 01006KT 4SM BR OVC003 06/06 A2998 RMK AO2 RAE0558 SLP153 P0000 T00560056
KCLT 150752Z 36005KT 2SM BR OVC002 06/06 A2997 RMK AO2 RAB05E22 SLP150 P0000 T00560056
KCLT 150852Z 34006KT 2SM RA BR OVC002 06/06 A2998 RMK AO2 RAB0755 SLP153 P0004 60004 T00610061 55007
KCLT 150952Z 36005KT 3SM -RA BR BKN003 BKN014 OVC050 07/06 A2997 RMK AO2 CIG 002V006 SLP151 P0011 T00670061
KCLT 151052Z 03010KT 4SM -RA BR BKN008 BKN030 OVC100 07/06 A2993 RMK AO2 SLP137 P0008 T00670061
KCLT 151152Z 09007KT 3SM -RA BR OVC004 07/07 A2992 RMK AO2 RAE09B42 PRESRR SLP133 P0000 60023 70080 T00720067 10072 20056 58020



Page loaded:  12:00 UTC  |   04:00 AM Pacific  |   05:00 AM Mountain  |   06:00 AM Central  |   07:00 AM Eastern

 

ADVISORIES

FORECASTS

FORECASTS

OBSERVATIONS

USER TOOLS

ABOUT US